Time;durP1;ratioP1;P1;durP2;ratioP2;P2;SDS_P1;SDS_P2;PMS_P1;PMS_P2;Temp;Humidity;BMP_temperature;BMP_pressure;BME280_temperature;BME280_humidity;BME280_pressure;Samples;Min_cycle;Max_cycle;Signal;HPM_P1;HPM_P2
2024/03/11 00:02:24;;;;;;;1.02;0.80;;;;;;;0.88;60.26;100619.06;5126332;28;20053;-69
2024/03/11 00:04:50;;;;;;;0.90;0.90;;;;;;;0.92;60.17;100615.81;5127764;28;20079;-68
2024/03/11 00:07:15;;;;;;;5.03;1.40;;;;;;;0.83;60.38;100608.66;5127543;28;20028;-69
2024/03/11 00:09:48;;;;;;;0.63;0.63;;;;;;;0.93;60.34;100614.09;5127190;28;20043;-68
2024/03/11 00:12:22;;;;;;;0.80;0.80;;;;;;;0.92;60.23;100609.81;5126088;28;20027;-67
2024/03/11 00:14:48;;;;;;;0.93;0.90;;;;;;;0.89;60.35;100625.03;5107865;28;20019;-68
2024/03/11 00:17:14;;;;;;;1.10;0.90;;;;;;;0.82;60.53;100616.28;5126076;28;20535;-68
2024/03/11 00:19:40;;;;;;;1.27;1.17;;;;;;;0.85;60.32;100622.38;5126091;28;20083;-67
2024/03/11 00:22:05;;;;;;;0.82;0.82;;;;;;;0.93;60.30;100616.66;5125923;28;20038;-67
2024/03/11 00:24:30;;;;;;;4.88;1.10;;;;;;;0.92;60.30;100620.03;5107369;28;20028;-68
2024/03/11 00:26:56;;;;;;;0.50;0.50;;;;;;;0.85;60.42;100611.28;5125949;28;20150;-67
2024/03/11 00:29:21;;;;;;;3.20;1.58;;;;;;;0.84;60.48;100607.88;5125786;28;20026;-68
2024/03/11 00:31:48;;;;;;;0.50;0.50;;;;;;;1.06;60.01;100615.38;5125667;28;20028;-68
2024/03/11 00:34:17;;;;;;;0.60;0.60;;;;;;;0.90;60.39;100617.44;5125949;28;20558;-67
2024/03/11 00:36:42;;;;;;;1.30;1.20;;;;;;;0.90;60.13;100627.66;5125287;28;20023;-69
2024/03/11 00:39:15;;;;;;;1.45;1.40;;;;;;;0.88;60.45;100616.50;5125606;28;20020;-68
2024/03/11 00:41:40;;;;;;;1.30;1.23;;;;;;;0.97;60.21;100613.41;5125836;28;20026;-68
2024/03/11 00:44:06;;;;;;;5.18;1.20;;;;;;;0.90;60.44;100614.00;5125054;28;20114;-68
2024/03/11 00:46:31;;;;;;;1.77;1.67;;;;;;;0.83;60.51;100605.25;5125349;28;20024;-68
2024/03/11 00:48:58;;;;;;;1.02;1.02;;;;;;;0.87;60.49;100617.31;5107166;28;20031;-68
2024/03/11 00:51:24;;;;;;;1.60;1.48;;;;;;;0.89;60.51;100609.72;5125593;28;20099;-68
2024/03/11 00:53:50;;;;;;;0.50;0.50;;;;;;;0.87;60.57;100617.31;5125173;28;20080;-68
2024/03/11 00:56:16;;;;;;;1.48;1.10;;;;;;;0.85;60.59;100607.03;5123975;28;20023;-69
2024/03/11 00:58:42;;;;;;;0.60;0.60;;;;;;;0.85;60.58;100608.72;5125289;28;20087;-68
2024/03/11 01:01:11;;;;;;;1.33;1.23;;;;;;;0.83;60.58;100610.38;5124128;28;20035;-68
2024/03/11 01:03:37;;;;;;;1.02;0.95;;;;;;;0.82;60.45;100593.28;5125285;28;20031;-69
2024/03/11 01:06:04;;;;;;;0.70;0.70;;;;;;;0.83;60.59;100592.47;5125502;28;20020;-67
2024/03/11 01:08:30;;;;;;;1.40;1.30;;;;;;;0.85;60.59;100618.94;5124967;28;20047;-67
2024/03/11 01:10:56;;;;;;;1.38;1.17;;;;;;;0.77;60.53;100574.38;5107048;28;20028;-68
2024/03/11 01:13:21;;;;;;;1.02;1.02;;;;;;;0.76;60.87;100590.50;5125276;28;20031;-66
2024/03/11 01:15:48;;;;;;;0.90;0.88;;;;;;;0.71;60.89;100577.56;5125233;28;20023;-68
2024/03/11 01:18:14;;;;;;;1.15;0.93;;;;;;;0.68;61.12;100591.13;5124942;28;20610;-67
2024/03/11 01:20:40;;;;;;;1.75;1.02;;;;;;;0.64;61.02;100576.47;5125289;28;20028;-69
2024/03/11 01:23:06;;;;;;;0.65;0.65;;;;;;;0.64;61.45;100575.63;5125061;28;20020;-67
2024/03/11 01:25:32;;;;;;;0.80;0.80;;;;;;;0.69;60.82;100585.19;5125212;28;20040;-68
2024/03/11 01:27:58;;;;;;;0.93;0.93;;;;;;;0.72;60.85;100577.63;5125094;28;20023;-68
2024/03/11 01:30:24;;;;;;;0.50;0.50;;;;;;;0.62;61.19;100578.13;5124950;28;20086;-69
2024/03/11 01:32:50;;;;;;;1.33;1.23;;;;;;;0.65;61.12;100574.81;5125001;28;20031;-67
2024/03/11 01:35:16;;;;;;;0.90;0.90;;;;;;;0.65;61.26;100570.56;5125078;28;20024;-68
2024/03/11 01:37:41;;;;;;;0.88;0.88;;;;;;;0.64;61.37;100583.31;5124802;28;20024;-69
2024/03/11 01:40:10;;;;;;;0.70;0.70;;;;;;;0.60;61.63;100572.09;5125002;28;20019;-68
2024/03/11 01:42:35;;;;;;;1.95;1.02;;;;;;;0.58;61.63;100572.03;5125011;28;20092;-66
2024/03/11 01:45:03;;;;;;;1.30;1.20;;;;;;;0.57;61.58;100567.75;5125011;28;20519;-68
2024/03/11 01:47:29;;;;;;;0.50;0.50;;;;;;;0.66;61.38;100571.44;5124922;28;20020;-68
2024/03/11 01:49:59;;;;;;;0.52;0.52;;;;;;;0.58;61.69;100573.72;5125020;28;20075;-68
2024/03/11 01:52:30;;;;;;;3.53;1.00;;;;;;;0.68;61.62;100575.78;5124575;28;20020;-68
2024/03/11 01:54:56;;;;;;;0.80;0.80;;;;;;;0.60;61.68;100570.41;5106743;28;20033;-68
2024/03/11 01:57:23;;;;;;;1.23;1.15;;;;;;;0.58;61.62;100566.06;5128294;28;20131;-68
2024/03/11 01:59:52;;;;;;;0.50;0.50;;;;;;;0.53;61.85;100552.28;5128759;28;20069;-68
2024/03/11 02:02:20;;;;;;;0.80;0.80;;;;;;;0.56;62.02;100560.03;5128693;28;20023;-67
2024/03/11 02:04:47;;;;;;;0.93;0.93;;;;;;;0.55;62.09;100571.94;5128555;28;20024;-68
2024/03/11 02:07:13;;;;;;;3.22;1.38;;;;;;;0.54;61.87;100566.78;5128508;28;20095;-67
2024/03/11 02:09:42;;;;;;;0.60;0.60;;;;;;;0.55;62.22;100576.16;5128576;28;20475;-68
2024/03/11 02:12:09;;;;;;;2.08;1.35;;;;;;;0.64;61.89;100576.47;5128363;28;20031;-68
2024/03/11 02:14:35;;;;;;;0.95;0.70;;;;;;;0.56;62.10;100575.38;5128036;28;20023;-68
2024/03/11 02:17:02;;;;;;;1.13;0.70;;;;;;;0.36;62.28;100558.50;5128540;28;20019;-67
2024/03/11 02:19:28;;;;;;;1.35;1.35;;;;;;;0.55;62.05;100573.59;5128436;28;20085;-68
2024/03/11 02:21:53;;;;;;;0.60;0.60;;;;;;;0.61;62.40;100569.59;5128039;28;20019;-67
2024/03/11 02:24:18;;;;;;;0.70;0.70;;;;;;;0.46;62.54;100557.13;5128265;28;20420;-68
2024/03/11 02:26:48;;;;;;;0.90;0.82;;;;;;;0.42;62.29;100562.06;5127983;28;20027;-68
2024/03/11 02:29:16;;;;;;;1.02;1.00;;;;;;;0.47;62.59;100561.44;5126868;28;20549;-69
2024/03/11 02:31:43;;;;;;;0.98;0.98;;;;;;;0.40;62.62;100545.84;5128189;28;20023;-68
2024/03/11 02:34:09;;;;;;;1.40;1.30;;;;;;;0.43;62.69;100564.69;5127917;28;20050;-67
2024/03/11 02:36:35;;;;;;;0.50;0.50;;;;;;;0.26;62.65;100524.94;5128169;28;20076;-67
2024/03/11 02:39:00;;;;;;;0.65;0.65;;;;;;;0.40;62.76;100546.69;5127572;28;20019;-68
2024/03/11 02:41:25;;;;;;;1.33;1.25;;;;;;;0.45;62.72;100550.28;5127858;28;20041;-68
2024/03/11 02:43:51;;;;;;;1.85;1.35;;;;;;;0.47;62.70;100541.00;5128078;28;20074;-67
2024/03/11 02:46:17;;;;;;;0.50;0.50;;;;;;;0.48;62.87;100547.84;5127675;28;20031;-67
2024/03/11 02:48:43;;;;;;;0.65;0.65;;;;;;;0.44;63.30;100553.69;5128012;28;20023;-67
2024/03/11 02:51:08;;;;;;;1.13;1.02;;;;;;;0.41;63.05;100548.47;5127785;28;20023;-68
2024/03/11 02:53:34;;;;;;;0.75;0.75;;;;;;;0.39;63.16;100550.06;5127405;28;20087;-68
2024/03/11 02:56:07;;;;;;;0.60;0.60;;;;;;;0.30;63.37;100542.97;5127610;28;20087;-68
2024/03/11 02:58:33;;;;;;;0.82;0.80;;;;;;;0.32;63.15;100543.03;5127496;28;20083;-68
2024/03/11 03:00:58;;;;;;;1.00;0.93;;;;;;;0.36;63.36;100562.75;5127689;28;20016;-68
2024/03/11 03:03:24;;;;;;;0.93;0.93;;;;;;;0.35;63.31;100550.78;5127833;28;20048;-68
2024/03/11 03:05:49;;;;;;;2.15;1.48;;;;;;;0.37;63.46;100564.47;5127303;28;20015;-68
2024/03/11 03:08:15;;;;;;;0.70;0.70;;;;;;;0.33;63.62;100545.63;5126432;28;20376;-67
2024/03/11 03:10:41;;;;;;;2.42;1.35;;;;;;;0.50;63.14;100547.91;5109053;28;20053;-68
2024/03/11 03:13:06;;;;;;;0.70;0.70;;;;;;;0.43;63.41;100558.72;5108671;28;20027;-67
2024/03/11 03:15:31;;;;;;;0.80;0.80;;;;;;;0.36;63.77;100549.97;5127376;28;20024;-67
2024/03/11 03:17:57;;;;;;;3.60;2.08;;;;;;;0.33;63.96;100547.31;5108653;28;20055;-62
2024/03/11 03:20:22;;;;;;;4.28;1.33;;;;;;;0.36;63.81;100547.41;5127111;28;20028;-63
2024/03/11 03:22:47;;;;;;;2.83;0.80;;;;;;;0.44;63.70;100551.13;5127172;28;20027;-63
2024/03/11 03:25:13;;;;;;;4.97;1.27;;;;;;;0.32;63.94;100538.75;5127044;28;20023;-63
2024/03/11 03:27:38;;;;;;;1.60;1.05;;;;;;;0.32;64.13;100555.78;5127066;28;20479;-61
2024/03/11 03:30:06;;;;;;;0.82;0.82;;;;;;;0.25;64.34;100534.28;5127246;28;20106;-62
2024/03/11 03:32:31;;;;;;;1.35;1.25;;;;;;;0.24;64.58;100541.06;5126858;28;20073;-62
2024/03/11 03:34:56;;;;;;;0.88;0.88;;;;;;;0.18;64.57;100532.28;5126768;28;20070;-63
2024/03/11 03:37:22;;;;;;;3.67;1.70;;;;;;;0.25;64.50;100536.81;5126672;28;20043;-63
2024/03/11 03:39:47;;;;;;;0.88;0.88;;;;;;;0.16;64.73;100526.28;5126716;28;20045;-63
2024/03/11 03:42:13;;;;;;;0.98;0.98;;;;;;;0.20;64.74;100529.00;5126921;28;20023;-63
2024/03/11 03:44:38;;;;;;;1.23;1.10;;;;;;;0.30;64.60;100537.88;5126765;28;20024;-63
2024/03/11 03:47:04;;;;;;;1.45;1.35;;;;;;;0.23;64.68;100523.13;5126750;28;20028;-64
2024/03/11 03:49:30;;;;;;;0.80;0.80;;;;;;;0.23;65.09;100552.09;5126748;28;20427;-63
2024/03/11 03:51:55;;;;;;;1.60;1.35;;;;;;;0.24;65.11;100542.72;5126095;28;20028;-63
2024/03/11 03:54:21;;;;;;;1.77;1.42;;;;;;;0.22;64.94;100540.13;5126561;28;20032;-62
2024/03/11 03:56:47;;;;;;;1.75;1.23;;;;;;;0.25;65.17;100552.16;5126499;28;20049;-63
2024/03/11 03:59:12;;;;;;;0.50;0.50;;;;;;;0.24;65.25;100548.72;5126296;28;20019;-62
2024/03/11 04:01:37;;;;;;;1.90;1.23;;;;;;;0.22;65.22;100552.88;5108017;28;20023;-63
2024/03/11 04:04:03;;;;;;;0.82;0.77;;;;;;;0.28;65.29;100559.03;5126430;28;20225;-63
2024/03/11 04:06:29;;;;;;;0.60;0.60;;;;;;;0.24;65.22;100558.94;5126302;28;20031;-63
2024/03/11 04:08:54;;;;;;;0.82;0.68;;;;;;;0.20;65.48;100561.31;5126453;28;20055;-63
2024/03/11 04:11:20;;;;;;;0.75;0.75;;;;;;;0.14;65.55;100548.31;5126609;28;20051;-64
2024/03/11 04:13:49;;;;;;;0.70;0.70;;;;;;;0.16;65.55;100562.88;5126155;28;20019;-64
2024/03/11 04:16:16;;;;;;;0.80;0.80;;;;;;;0.18;65.52;100561.25;5126237;28;20387;-63
2024/03/11 04:18:42;;;;;;;0.50;0.50;;;;;;;0.16;65.58;100565.44;5125955;28;20043;-62
2024/03/11 04:21:08;;;;;;;1.88;1.77;;;;;;;0.19;65.54;100568.09;5125550;28;20055;-63
2024/03/11 04:23:33;;;;;;;1.27;1.17;;;;;;;0.12;65.72;100568.69;5125875;28;20031;-62
2024/03/11 04:26:00;;;;;;;2.15;1.23;;;;;;;0.13;65.70;100575.53;5107455;28;20012;-62
2024/03/11 04:28:28;;;;;;;0.77;0.77;;;;;;;0.07;65.76;100560.00;5125850;28;20030;-62
2024/03/11 04:30:55;;;;;;;0.80;0.80;;;;;;;0.09;65.87;100566.03;5125968;28;20059;-63
2024/03/11 04:33:23;;;;;;;1.85;1.23;;;;;;;0.11;65.96;100559.31;5125751;28;20019;-64
2024/03/11 04:35:49;;;;;;;1.30;1.20;;;;;;;-0.06;66.08;100544.22;5107340;28;20024;-63
2024/03/11 04:38:15;;;;;;;1.83;1.70;;;;;;;0.04;66.15;100559.88;5125550;28;20020;-64
2024/03/11 04:40:47;;;;;;;6.40;1.13;;;;;;;0.01;66.17;100539.34;5124155;28;20030;-63
2024/03/11 04:43:13;;;;;;;1.15;0.90;;;;;;;0.05;66.14;100551.44;5125548;28;20079;-63
2024/03/11 04:45:39;;;;;;;0.85;0.80;;;;;;;0.05;66.31;100564.19;5124160;28;20020;-65
2024/03/11 04:48:06;;;;;;;0.73;0.73;;;;;;;0.03;66.43;100556.47;5125489;28;20085;-64
2024/03/11 04:50:33;;;;;;;0.80;0.80;;;;;;;-0.04;66.57;100552.81;5126219;28;20116;-65
2024/03/11 04:53:02;;;;;;;0.93;0.90;;;;;;;-0.02;66.74;100556.28;5125951;28;20023;-63
2024/03/11 04:55:28;;;;;;;0.60;0.60;;;;;;;-0.11;66.77;100549.97;5125416;28;20169;-63
2024/03/11 04:57:54;;;;;;;0.50;0.50;;;;;;;-0.06;66.81;100551.88;5125808;28;20084;-63
2024/03/11 05:00:26;;;;;;;1.70;1.55;;;;;;;-0.12;67.07;100549.09;5125288;28;20046;-63
2024/03/11 05:02:54;;;;;;;1.15;1.13;;;;;;;-0.13;67.25;100540.56;5125219;28;20024;-63
2024/03/11 05:05:20;;;;;;;0.95;0.95;;;;;;;-0.13;67.25;100534.59;5125426;28;20020;-62
2024/03/11 05:07:45;;;;;;;2.80;1.70;;;;;;;-0.16;67.32;100527.69;5125169;28;20068;-62
2024/03/11 05:10:12;;;;;;;1.02;0.80;;;;;;;-0.17;67.47;100548.03;5125183;28;20123;-62
2024/03/11 05:12:37;;;;;;;1.27;1.17;;;;;;;-0.18;67.64;100538.66;5125332;28;20026;-62
2024/03/11 05:15:05;;;;;;;7.07;1.50;;;;;;;-0.27;67.92;100527.28;5125081;28;20023;-61
2024/03/11 05:17:30;;;;;;;0.60;0.60;;;;;;;-0.19;67.92;100526.72;5125164;28;20027;-62
2024/03/11 05:19:56;;;;;;;1.05;1.00;;;;;;;-0.21;68.06;100529.22;5125187;28;20076;-63
2024/03/11 05:22:23;;;;;;;0.88;0.88;;;;;;;-0.35;67.99;100518.47;5124988;28;20031;-63
2024/03/11 05:24:49;;;;;;;0.85;0.85;;;;;;;-0.36;68.22;100511.63;5124069;28;20476;-61
2024/03/11 05:27:15;;;;;;;1.67;1.48;;;;;;;-0.29;68.38;100522.94;5125109;28;20114;-60
2024/03/11 05:29:42;;;;;;;0.60;0.60;;;;;;;-0.32;68.48;100500.72;5125200;28;20076;-62
2024/03/11 05:32:08;;;;;;;1.70;1.42;;;;;;;-0.30;68.57;100509.31;5110070;28;20027;-64
2024/03/11 05:34:34;;;;;;;3.40;1.65;;;;;;;-0.27;68.61;100506.00;5127469;28;20051;-64
2024/03/11 05:36:59;;;;;;;31.35;2.20;;;;;;;-0.34;68.96;100496.38;5129093;28;20027;-63
2024/03/11 05:39:24;;;;;;;1.63;1.25;;;;;;;-0.44;69.10;100500.25;5129350;28;20505;-63
2024/03/11 05:41:50;;;;;;;1.13;0.80;;;;;;;-0.42;69.31;100496.09;5129293;28;20024;-62
2024/03/11 05:44:15;;;;;;;1.17;1.10;;;;;;;-0.47;69.48;100493.38;5110940;28;20015;-63
2024/03/11 05:46:41;;;;;;;1.73;1.63;;;;;;;-0.56;69.50;100496.41;5128626;28;20399;-63
2024/03/11 05:49:12;;;;;;;0.68;0.68;;;;;;;-0.42;69.77;100498.66;5128809;28;20055;-63
2024/03/11 05:51:38;;;;;;;0.75;0.75;;;;;;;-0.41;69.72;100490.16;5127900;28;20034;-63
2024/03/11 05:54:04;;;;;;;3.42;2.45;;;;;;;-0.51;69.96;100494.94;5128556;28;20099;-63
2024/03/11 05:56:29;;;;;;;3.20;1.20;;;;;;;-0.40;69.82;100502.97;5128680;28;20023;-64
2024/03/11 05:58:55;;;;;;;0.60;0.60;;;;;;;-0.37;70.31;100520.09;5128821;28;20030;-63
2024/03/11 06:01:20;;;;;;;1.10;1.08;;;;;;;-0.31;70.12;100512.69;5128734;28;20027;-65
2024/03/11 06:03:50;;;;;;;1.23;1.13;;;;;;;-0.27;70.18;100524.75;5128855;28;20019;-62
2024/03/11 06:06:16;;;;;;;0.73;0.73;;;;;;;-0.15;70.15;100513.25;5128743;28;20022;-63
2024/03/11 06:08:43;;;;;;;0.73;0.73;;;;;;;-0.06;70.11;100508.47;5126888;28;20043;-63
2024/03/11 06:11:09;;;;;;;1.40;0.98;;;;;;;-0.01;69.79;100517.19;5128670;28;20056;-64
2024/03/11 06:13:34;;;;;;;0.73;0.73;;;;;;;-0.08;69.54;100522.88;5110339;28;20079;-65
2024/03/11 06:16:00;;;;;;;1.15;1.10;;;;;;;-0.10;69.56;100521.97;5128456;28;20035;-63
2024/03/11 06:18:25;;;;;;;0.75;0.75;;;;;;;-0.20;69.65;100522.41;5128659;28;20031;-63
2024/03/11 06:20:51;;;;;;;1.25;1.15;;;;;;;-0.06;69.08;100511.03;5128352;28;20027;-64
2024/03/11 06:23:18;;;;;;;3.33;2.22;;;;;;;-0.14;69.17;100522.63;5127997;28;20023;-64
2024/03/11 06:25:43;;;;;;;0.70;0.70;;;;;;;-0.06;70.05;100523.81;5128265;28;20016;-64
2024/03/11 06:28:09;;;;;;;12.65;1.42;;;;;;;0.14;70.13;100513.47;5128264;28;20053;-65
2024/03/11 06:30:34;;;;;;;0.70;0.70;;;;;;;0.41;69.88;100524.59;5128358;28;20491;-64
2024/03/11 06:33:00;;;;;;;2.65;2.15;;;;;;;0.55;69.58;100535.28;5128149;28;20023;-63
2024/03/11 06:35:25;;;;;;;1.02;0.95;;;;;;;0.70;69.34;100540.06;5109550;28;20034;-64
2024/03/11 06:37:51;;;;;;;1.52;1.42;;;;;;;1.02;68.02;100535.19;5127983;28;20028;-63
2024/03/11 06:40:21;;;;;;;0.52;0.52;;;;;;;0.95;67.93;100516.19;5128109;28;20055;-63
2024/03/11 06:42:52;;;;;;;1.08;1.00;;;;;;;1.16;67.70;100547.53;5126911;28;20019;-64
2024/03/11 06:45:18;;;;;;;0.95;0.88;;;;;;;1.23;67.16;100532.41;5128265;28;20015;-64
2024/03/11 06:47:43;;;;;;;0.60;0.60;;;;;;;1.35;66.76;100524.28;5128122;28;20019;-64
2024/03/11 06:50:09;;;;;;;1.30;1.30;;;;;;;1.50;66.54;100523.03;5128131;28;20027;-63
2024/03/11 06:52:35;;;;;;;1.05;0.70;;;;;;;1.78;65.91;100520.41;5128182;28;20095;-63
2024/03/11 06:55:00;;;;;;;2.47;2.13;;;;;;;1.83;65.48;100521.41;5127718;28;20540;-64
2024/03/11 06:57:26;;;;;;;1.08;0.80;;;;;;;1.89;65.60;100529.28;5127762;28;20058;-62
2024/03/11 06:59:51;;;;;;;1.67;1.25;;;;;;;1.98;64.84;100503.94;5127954;28;20479;-64
2024/03/11 07:02:20;;;;;;;1.42;1.33;;;;;;;2.18;64.92;100520.69;5127848;28;20024;-64
2024/03/11 07:04:46;;;;;;;0.80;0.80;;;;;;;2.39;64.10;100542.59;5127638;28;20020;-62
2024/03/11 07:07:12;;;;;;;3.60;1.50;;;;;;;2.45;63.65;100538.53;5126137;28;20103;-64
2024/03/11 07:09:37;;;;;;;0.95;0.95;;;;;;;2.63;62.79;100519.34;5127494;28;20071;-64
2024/03/11 07:12:03;;;;;;;1.02;1.00;;;;;;;2.65;62.41;100533.03;5109510;28;20054;-63
2024/03/11 07:14:29;;;;;;;1.05;0.93;;;;;;;2.73;61.97;100515.31;5127523;28;20049;-65
2024/03/11 07:16:54;;;;;;;0.70;0.70;;;;;;;2.70;61.97;100512.69;5127481;28;20103;-64
2024/03/11 07:19:20;;;;;;;1.15;1.05;;;;;;;2.85;61.89;100554.09;5127583;28;20023;-64
2024/03/11 07:21:46;;;;;;;0.68;0.68;;;;;;;3.01;61.01;100512.56;5127377;28;20364;-64
2024/03/11 07:24:12;;;;;;;3.80;0.95;;;;;;;3.12;61.18;100541.03;5127357;28;20045;-64
2024/03/11 07:26:38;;;;;;;0.50;0.50;;;;;;;3.19;61.08;100517.28;5127568;28;20016;-64
2024/03/11 07:29:04;;;;;;;1.42;0.77;;;;;;;3.46;60.18;100519.63;5127272;28;20031;-64
2024/03/11 07:31:30;;;;;;;0.80;0.80;;;;;;;3.59;59.86;100525.03;5125889;28;20024;-64
2024/03/11 07:33:55;;;;;;;1.45;1.00;;;;;;;3.65;59.60;100517.47;5127185;28;20023;-64
2024/03/11 07:36:21;;;;;;;3.33;1.38;;;;;;;3.72;58.60;100516.75;5126970;28;20027;-63
2024/03/11 07:38:47;;;;;;;1.77;0.80;;;;;;;3.65;58.23;100507.19;5126933;28;20049;-64
2024/03/11 07:41:12;;;;;;;1.63;1.52;;;;;;;3.54;58.22;100524.94;5125585;28;20027;-64
2024/03/11 07:43:39;;;;;;;1.20;1.10;;;;;;;3.46;58.27;100517.06;5126772;28;20042;-64
2024/03/11 07:46:05;;;;;;;1.25;0.95;;;;;;;3.48;58.65;100511.94;5127197;28;20033;-65
2024/03/11 07:48:30;;;;;;;0.50;0.50;;;;;;;3.53;58.28;100560.84;5126817;28;20023;-63
2024/03/11 07:50:56;;;;;;;1.85;1.38;;;;;;;3.32;58.53;100503.88;5126815;28;20116;-63
2024/03/11 07:53:21;;;;;;;1.17;1.08;;;;;;;3.37;59.39;100491.16;5126391;28;20024;-63
2024/03/11 07:55:47;;;;;;;3.80;3.60;;;;;;;3.64;58.82;100505.47;5126583;28;20026;-65
2024/03/11 07:58:14;;;;;;;1.67;0.82;;;;;;;3.68;58.68;100484.13;5108408;28;20031;-66
2024/03/11 08:00:42;;;;;;;0.93;0.82;;;;;;;3.70;57.87;100500.47;5127001;28;20015;-65
2024/03/11 08:03:09;;;;;;;0.80;0.80;;;;;;;3.65;57.36;100496.91;5108222;28;20066;-64
2024/03/11 08:05:36;;;;;;;2.67;2.47;;;;;;;3.61;57.33;100513.06;5126817;28;20020;-63
2024/03/11 08:08:04;;;;;;;0.60;0.60;;;;;;;3.53;58.07;100520.59;5126112;28;20019;-64
2024/03/11 08:10:30;;;;;;;1.63;1.23;;;;;;;3.45;57.78;100487.06;5126548;28;20039;-65
2024/03/11 08:12:55;;;;;;;2.42;1.75;;;;;;;3.64;57.80;100492.63;5125419;28;20036;-64
2024/03/11 08:15:21;;;;;;;0.88;0.85;;;;;;;3.69;57.72;100511.53;5126210;28;20033;-64
2024/03/11 08:17:50;;;;;;;1.30;1.20;;;;;;;3.53;57.17;100510.34;5126190;28;20035;-64
2024/03/11 08:20:17;;;;;;;1.13;1.10;;;;;;;3.47;57.38;100495.69;5126352;28;20020;-63
2024/03/11 08:22:54;;;;;;;3.90;1.15;;;;;;;3.50;57.15;100496.59;5126194;28;20019;-63
2024/03/11 08:25:22;;;;;;;2.42;1.40;;;;;;;3.40;57.37;100490.38;5126365;28;20019;-64
2024/03/11 08:27:54;;;;;;;1.15;0.77;;;;;;;3.53;57.38;100502.63;5126493;28;20024;-64
2024/03/11 08:30:24;;;;;;;1.35;1.25;;;;;;;3.61;56.99;100487.41;5126181;28;20027;-64
2024/03/11 08:32:50;;;;;;;0.80;0.70;;;;;;;3.75;56.79;100489.41;5126419;28;20037;-63
2024/03/11 08:35:17;;;;;;;0.88;0.85;;;;;;;4.04;56.18;100491.72;5125853;28;20012;-64
2024/03/11 08:37:42;;;;;;;1.90;1.80;;;;;;;4.29;55.95;100489.59;5126009;28;20039;-64
2024/03/11 08:40:10;;;;;;;1.17;1.08;;;;;;;4.44;55.29;100497.59;5126363;28;20035;-64
2024/03/11 08:42:36;;;;;;;1.15;1.10;;;;;;;4.52;54.99;100476.31;5124698;28;20121;-64
2024/03/11 08:45:01;;;;;;;1.35;1.23;;;;;;;4.65;54.82;100485.97;5125780;28;20024;-65
2024/03/11 08:47:27;;;;;;;2.40;1.55;;;;;;;4.86;54.54;100494.03;5124783;28;20110;-63
2024/03/11 08:49:53;;;;;;;1.20;1.10;;;;;;;4.95;54.14;100491.59;5107600;28;20028;-65
2024/03/11 08:52:19;;;;;;;0.75;0.75;;;;;;;4.95;54.02;100523.31;5125764;28;20020;-64
2024/03/11 08:54:44;;;;;;;1.38;1.27;;;;;;;5.00;53.85;100489.09;5107087;28;20118;-63
2024/03/11 08:57:13;;;;;;;3.53;2.33;;;;;;;5.04;54.29;100480.56;5125703;28;20027;-64
2024/03/11 08:59:39;;;;;;;0.63;0.63;;;;;;;5.08;53.35;100496.09;5125894;28;20027;-64
2024/03/11 09:02:07;;;;;;;2.42;1.10;;;;;;;5.16;53.68;100490.22;5125784;28;20484;-63
2024/03/11 09:04:32;;;;;;;1.08;0.98;;;;;;;5.28;53.28;100481.78;5125452;28;20102;-64
2024/03/11 09:06:58;;;;;;;0.50;0.50;;;;;;;5.42;52.61;100493.16;5125228;28;20513;-63
2024/03/11 09:09:24;;;;;;;0.93;0.77;;;;;;;5.44;52.19;100490.59;5125486;28;20104;-64
2024/03/11 09:11:57;;;;;;;0.85;0.85;;;;;;;5.41;52.48;100470.84;5125504;28;20027;-65
2024/03/11 09:14:27;;;;;;;4.18;2.25;;;;;;;5.55;52.19;100470.16;5107217;28;20051;-63
2024/03/11 09:16:55;;;;;;;1.05;0.95;;;;;;;5.63;52.06;100465.97;5125331;28;20024;-63
2024/03/11 09:19:23;;;;;;;4.43;1.80;;;;;;;5.74;51.80;100485.84;5125337;28;20527;-64
2024/03/11 09:21:50;;;;;;;1.33;1.23;;;;;;;5.72;51.77;100469.50;5125352;28;20106;-65
2024/03/11 09:24:17;;;;;;;0.75;0.75;;;;;;;6.18;51.41;100475.22;5125141;28;20135;-64
2024/03/11 09:26:43;;;;;;;4.03;2.05;;;;;;;6.37;50.00;100480.59;5125566;28;20024;-64
2024/03/11 09:29:11;;;;;;;0.70;0.70;;;;;;;6.25;50.46;100465.84;5125387;28;20023;-65
2024/03/11 09:31:37;;;;;;;1.05;0.88;;;;;;;6.36;49.93;100468.53;5125242;28;20050;-63
2024/03/11 09:34:03;;;;;;;0.50;0.50;;;;;;;6.44;49.83;100479.78;5125983;28;20102;-64
2024/03/11 09:36:31;;;;;;;1.45;1.35;;;;;;;6.67;50.18;100476.56;5125812;28;20379;-64
2024/03/11 09:38:57;;;;;;;1.63;0.82;;;;;;;7.10;50.01;100472.59;5124061;28;20091;-65
2024/03/11 09:41:25;;;;;;;1.08;0.90;;;;;;;7.53;48.39;100481.47;5123779;28;20065;-64
2024/03/11 09:43:51;;;;;;;2.05;1.58;;;;;;;7.47;47.92;100469.38;5125109;28;20055;-65
2024/03/11 09:46:20;;;;;;;1.70;1.52;;;;;;;7.69;47.69;100462.59;5125383;28;20046;-66
2024/03/11 09:48:51;;;;;;;2.05;1.65;;;;;;;7.87;47.27;100460.94;5125287;28;20038;-64
2024/03/11 09:51:21;;;;;;;1.85;1.25;;;;;;;8.25;47.07;100463.63;5125214;28;20023;-63
2024/03/11 09:53:54;;;;;;;1.15;1.02;;;;;;;8.43;45.85;100476.59;5123486;28;20019;-64
2024/03/11 09:56:23;;;;;;;0.50;0.50;;;;;;;8.46;45.40;100461.94;5124909;28;20016;-65
2024/03/11 09:58:58;;;;;;;1.25;1.02;;;;;;;8.59;45.78;100471.50;5125177;28;20035;-63
2024/03/11 10:01:30;;;;;;;1.33;1.15;;;;;;;8.77;45.51;100455.09;5125336;28;20024;-63
2024/03/11 10:03:57;;;;;;;0.93;0.73;;;;;;;9.04;44.66;100466.28;5106671;28;20028;-62
2024/03/11 10:06:24;;;;;;;2.28;1.60;;;;;;;8.99;44.33;100455.09;5125242;28;20034;-64
2024/03/11 10:08:49;;;;;;;3.70;1.77;;;;;;;9.10;43.11;100456.78;5124646;28;20047;-64
2024/03/11 10:11:21;;;;;;;2.47;0.73;;;;;;;8.99;44.74;100465.44;5124973;28;20417;-63
2024/03/11 10:13:47;;;;;;;;;;;;;;;9.37;43.62;100466.25;5125298;28;20115;-65
2024/03/11 10:16:17;;;;;;;1.70;0.85;;;;;;;9.50;43.09;100459.31;5124858;28;19919;-66
2024/03/11 10:19:05;;;;;;;3.03;1.27;;;;;;;9.72;42.78;100467.00;5128509;28;20075;-64
2024/03/11 10:21:33;;;;;;;1.80;1.20;;;;;;;9.62;42.63;100453.19;5128882;28;20012;-65
2024/03/11 10:24:00;;;;;;;2.33;1.77;;;;;;;9.73;42.58;100447.97;5109975;28;20172;-63
2024/03/11 10:26:28;;;;;;;0.85;0.77;;;;;;;9.87;42.15;100444.47;5128605;28;20254;-64
2024/03/11 10:28:56;;;;;;;1.65;1.55;;;;;;;9.65;42.24;100450.59;5128612;28;20034;-64
2024/03/11 10:31:31;;;;;;;0.60;0.60;;;;;;;9.76;42.76;100447.13;5110163;28;20024;-63
2024/03/11 10:34:10;;;;;;;2.33;1.02;;;;;;;9.88;42.13;100447.06;5128366;28;20540;-64
2024/03/11 10:36:37;;;;;;;1.35;1.23;;;;;;;9.73;42.38;100429.81;5128262;28;20107;-63
2024/03/11 10:41:51;;;;;;;1.25;1.10;;;;;;;10.26;41.92;100432.13;5128436;28;20080;-65
2024/03/11 10:44:23;;;;;;;1.23;1.10;;;;;;;10.46;40.97;100430.25;5128172;28;20043;-64
2024/03/11 10:46:48;;;;;;;;;;;;;;;10.35;40.99;100451.94;5128595;28;20012;-63
2024/03/11 10:49:14;;;;;;;1.10;0.90;;;;;;;10.21;40.97;100422.66;5128066;28;19918;-65
2024/03/11 10:51:45;;;;;;;3.33;2.03;;;;;;;10.22;40.96;100433.03;5128063;28;20016;-63
2024/03/11 10:54:28;;;;;;;0.70;0.70;;;;;;;10.16;41.43;100412.28;5109436;28;20039;-64
2024/03/11 10:56:55;;;;;;;0.65;0.65;;;;;;;10.20;40.92;100426.09;5128019;28;20047;-64
2024/03/11 10:59:22;;;;;;;1.25;0.85;;;;;;;9.85;41.05;100421.13;5128084;28;20054;-64
2024/03/11 11:01:57;;;;;;;2.88;1.42;;;;;;;9.56;42.05;100403.97;5126584;28;20038;-65
2024/03/11 11:04:28;;;;;;;1.20;0.60;;;;;;;9.66;41.98;100421.19;5127730;28;20020;-65
2024/03/11 11:06:58;;;;;;;3.72;2.13;;;;;;;9.48;43.04;100409.19;5109688;28;20027;-63
2024/03/11 11:09:24;;;;;;;1.20;1.10;;;;;;;9.88;42.16;100430.63;5127356;28;20123;-64
2024/03/11 11:11:51;;;;;;;1.65;0.90;;;;;;;9.91;41.61;100418.50;5109395;28;20036;-65
2024/03/11 11:14:27;;;;;;;4.00;1.13;;;;;;;10.06;41.54;100418.41;5127805;28;20024;-64
2024/03/11 11:16:55;;;;;;;3.00;1.05;;;;;;;10.17;41.46;100412.28;5109038;28;20020;-64
2024/03/11 11:19:23;;;;;;;1.10;0.90;;;;;;;10.21;41.21;100415.72;5127650;28;20073;-63
2024/03/11 11:21:50;;;;;;;3.55;0.88;;;;;;;10.30;41.26;100399.25;5127785;28;20080;-64
2024/03/11 11:24:26;;;;;;;1.42;1.25;;;;;;;10.93;40.04;100407.38;5127362;28;20076;-64
2024/03/11 11:26:55;;;;;;;3.53;1.33;;;;;;;11.08;40.05;100405.50;5127364;28;20026;-65
2024/03/11 11:29:25;;;;;;;0.90;0.77;;;;;;;11.43;39.00;100411.19;5126748;28;20112;-64
2024/03/11 11:32:13;;;;;;;1.88;0.85;;;;;;;11.40;39.13;100412.97;5126012;28;20023;-63
2024/03/11 11:34:44;;;;;;;2.28;1.45;;;;;;;11.36;39.14;100406.06;5127233;28;20024;-63